createdAt,value
2019-01-11T00:00:58.857Z,-1.20
2019-01-11T00:03:28.544Z,-1.20
2019-01-11T00:05:58.333Z,-1.20
2019-01-11T00:08:28.053Z,-1.20
2019-01-11T00:10:57.643Z,-1.20
2019-01-11T00:13:27.425Z,-1.20
2019-01-11T00:15:57.311Z,-1.00
2019-01-11T00:18:27.207Z,-0.90
2019-01-11T00:20:56.875Z,-1.00
2019-01-11T00:23:26.563Z,-1.00
2019-01-11T00:25:56.394Z,-1.10
2019-01-11T00:28:26.361Z,-1.20
2019-01-11T00:30:56.059Z,-1.20
2019-01-11T00:33:26.018Z,-1.20
2019-01-11T00:35:55.771Z,-1.30
2019-01-11T00:38:25.465Z,-1.30
2019-01-11T00:40:55.362Z,-1.30
2019-01-11T00:43:25.416Z,-1.30
2019-01-11T00:45:55.397Z,-1.30
2019-01-11T00:48:25.057Z,-1.30
2019-01-11T00:50:54.855Z,-1.40
2019-01-11T00:53:24.569Z,-1.30
2019-01-11T00:55:54.421Z,-1.30
2019-01-11T00:58:24.090Z,-1.40
2019-01-11T01:00:53.778Z,-1.30
2019-01-11T01:03:23.517Z,-1.30
2019-01-11T01:05:53.446Z,-1.30
2019-01-11T01:08:23.421Z,-1.30
2019-01-11T01:10:53.329Z,-1.30
2019-01-11T01:13:22.986Z,-1.40
2019-01-11T01:15:52.770Z,-1.40
2019-01-11T01:18:22.712Z,-1.40
2019-01-11T01:20:52.554Z,-1.40
2019-01-11T01:23:22.668Z,-1.40
2019-01-11T01:25:52.480Z,-1.50
2019-01-11T01:28:22.388Z,-1.40
2019-01-11T01:30:52.090Z,-1.50
2019-01-11T01:33:21.757Z,-1.40
2019-01-11T01:35:51.667Z,-1.50
2019-01-11T01:38:21.504Z,-1.50
2019-01-11T01:40:51.774Z,-1.50
2019-01-11T01:43:21.532Z,-1.50
2019-01-11T01:45:51.789Z,-1.50
2019-01-11T01:48:21.684Z,-1.50
2019-01-11T01:50:51.742Z,-1.50
2019-01-11T01:53:21.500Z,-1.50
2019-01-11T01:55:51.773Z,-1.50
2019-01-11T01:58:21.525Z,-1.50
2019-01-11T02:00:51.594Z,-1.50
2019-01-11T02:03:21.500Z,-1.50
2019-01-11T02:05:51.125Z,-1.50
2019-01-11T02:08:20.778Z,-1.60
2019-01-11T02:10:50.769Z,-1.50
2019-01-11T02:13:20.711Z,-1.50
2019-01-11T02:15:50.729Z,-1.50
2019-01-11T02:18:20.589Z,-1.50
2019-01-11T02:20:50.755Z,-1.40
2019-01-11T02:23:20.603Z,-1.40
2019-01-11T02:25:50.833Z,-1.40
2019-01-11T02:28:20.610Z,-1.40
2019-01-11T02:30:50.629Z,-1.40
2019-01-11T02:33:25.008Z,-1.40
2019-01-11T02:35:51.922Z,-1.40
2019-01-11T02:38:21.587Z,-1.30
2019-01-11T02:40:51.462Z,-1.40
2019-01-11T02:43:21.526Z,-1.30
2019-01-11T02:45:51.229Z,-1.20
2019-01-11T02:48:20.916Z,-1.20
2019-01-11T02:50:50.835Z,-1.10
2019-01-11T02:53:20.683Z,-1.10
2019-01-11T02:55:50.664Z,-1.00
2019-01-11T02:58:20.692Z,-1.00
2019-01-11T03:00:50.719Z,-0.90
2019-01-11T03:03:20.628Z,-0.90
2019-01-11T03:05:50.791Z,-0.80
2019-01-11T03:08:20.666Z,-0.80
2019-01-11T03:10:51.759Z,-0.80
2019-01-11T03:13:21.685Z,-0.80
2019-01-11T03:15:51.782Z,-0.80
2019-01-11T03:18:21.726Z,-0.80
2019-01-11T03:20:51.892Z,-0.80
2019-01-11T03:23:21.668Z,-0.80
2019-01-11T03:25:51.933Z,-0.90
2019-01-11T03:28:21.731Z,-0.90
2019-01-11T03:30:51.960Z,-0.90
2019-01-11T03:33:21.722Z,-0.90
2019-01-11T03:35:52.009Z,-0.90
2019-01-11T03:38:21.851Z,-0.90
2019-01-11T03:40:51.998Z,-0.90
2019-01-11T03:43:21.674Z,-0.80
2019-01-11T03:45:51.750Z,-0.80
2019-01-11T03:48:21.594Z,-0.90
2019-01-11T03:50:52.062Z,-0.90
2019-01-11T03:53:21.782Z,-1.00
2019-01-11T03:55:51.762Z,-1.00
2019-01-11T03:58:21.462Z,-0.90
2019-01-11T04:00:51.367Z,-1.00
2019-01-11T04:03:21.181Z,-1.00
2019-01-11T04:05:50.964Z,-1.00
2019-01-11T04:08:20.757Z,-1.10
2019-01-11T04:10:51.975Z,-1.20
2019-01-11T04:13:21.868Z,-1.30
2019-01-11T04:15:51.821Z,-1.30
2019-01-11T04:18:32.398Z,-1.40
2019-01-11T04:21:02.138Z,-1.40
2019-01-11T04:23:31.878Z,-1.40
2019-01-11T04:26:01.824Z,-1.50
2019-01-11T04:28:31.457Z,-1.50
2019-01-11T04:31:01.211Z,-1.50
2019-01-11T04:33:30.831Z,-1.50
2019-01-11T04:36:00.737Z,-1.50
2019-01-11T04:38:30.428Z,-1.50
2019-01-11T04:41:00.136Z,-1.60
2019-01-11T04:43:29.887Z,-1.60
2019-01-11T04:45:59.803Z,-1.70
2019-01-11T04:48:30.426Z,-1.70
2019-01-11T04:51:00.097Z,-1.70
2019-01-11T04:53:29.859Z,-1.70
2019-01-11T04:55:59.720Z,-1.70
2019-01-11T04:58:29.821Z,-1.70
2019-01-11T05:00:59.833Z,-1.70
2019-01-11T05:03:29.861Z,-1.70
2019-01-11T05:05:59.560Z,-1.70
2019-01-11T05:08:29.305Z,-1.70
2019-01-11T05:10:58.896Z,-1.70
2019-01-11T05:13:30.387Z,-1.60
2019-01-11T05:16:00.113Z,-1.60
2019-01-11T05:18:29.911Z,-1.60
2019-01-11T05:20:59.821Z,-1.60
2019-01-11T05:23:29.808Z,-1.60
2019-01-11T05:25:59.464Z,-1.60
2019-01-11T05:28:29.343Z,-1.60
2019-01-11T05:30:59.032Z,-1.60
2019-01-11T05:33:28.900Z,-1.60
2019-01-11T05:35:58.801Z,-1.60
2019-01-11T05:38:28.655Z,-1.60
2019-01-11T05:40:58.309Z,-1.60
2019-01-11T05:43:28.000Z,-1.70
2019-01-11T05:45:57.922Z,-1.70
2019-01-11T05:48:27.623Z,-1.70
2019-01-11T05:50:57.270Z,-1.70
2019-01-11T05:53:27.066Z,-1.60
2019-01-11T05:55:56.923Z,-1.70
2019-01-11T05:58:28.520Z,-1.60
2019-01-11T06:00:58.349Z,-1.50
2019-01-11T06:03:28.143Z,-1.50
2019-01-11T06:05:57.926Z,-1.40
2019-01-11T06:08:27.614Z,-1.40
2019-01-11T06:10:57.283Z,-1.40
2019-01-11T06:13:27.077Z,-1.40
2019-01-11T06:15:56.951Z,-1.40
2019-01-11T06:18:26.906Z,-1.40
2019-01-11T06:20:56.903Z,-1.40
2019-01-11T06:23:26.611Z,-1.40
2019-01-11T06:25:56.269Z,-1.40
2019-01-11T06:28:26.034Z,-1.50
2019-01-11T06:30:55.934Z,-1.50
2019-01-11T06:33:25.617Z,-1.50
2019-01-11T06:35:55.500Z,-1.50
2019-01-11T06:38:25.315Z,-1.50
2019-01-11T06:40:54.992Z,-1.50
2019-01-11T06:43:24.939Z,-1.50
2019-01-11T06:45:54.599Z,-1.50
2019-01-11T06:48:25.949Z,-1.50
2019-01-11T06:50:55.622Z,-1.50
2019-01-11T06:53:25.393Z,-1.50
2019-01-11T06:55:55.122Z,-1.50
2019-01-11T06:58:25.122Z,-1.50
2019-01-11T07:00:55.017Z,-1.40
2019-01-11T07:03:25.030Z,-1.40
2019-01-11T07:05:54.958Z,-1.40
2019-01-11T07:08:24.649Z,-1.40
2019-01-11T07:10:54.308Z,-1.40
2019-01-11T07:13:24.098Z,-1.40
2019-01-11T07:15:54.066Z,-1.40
2019-01-11T07:18:23.726Z,-1.30
2019-01-11T07:20:53.520Z,-1.30
2019-01-11T07:23:23.304Z,-1.30
2019-01-11T07:25:53.092Z,-1.30
2019-01-11T07:28:23.028Z,-1.10
2019-01-11T07:30:54.573Z,-1.00
2019-01-11T07:33:24.306Z,-1.00
2019-01-11T07:35:55.695Z,-1.00
2019-01-11T07:38:25.455Z,-0.90
2019-01-11T07:40:55.169Z,-0.80
2019-01-11T07:43:25.036Z,-0.80
2019-01-11T07:45:55.065Z,-0.80
2019-01-11T07:48:25.063Z,-0.80
2019-01-11T07:50:55.121Z,-0.80
2019-01-11T07:53:25.049Z,-0.70
2019-01-11T07:55:55.009Z,-0.70
2019-01-11T07:58:24.689Z,-0.70
2019-01-11T08:00:54.576Z,-0.70
2019-01-11T08:03:24.940Z,-0.70
2019-01-11T08:05:54.738Z,-0.70
2019-01-11T08:08:24.458Z,-0.70
2019-01-11T08:10:54.346Z,-0.70
2019-01-11T08:13:24.112Z,-0.70
2019-01-11T08:15:54.117Z,-0.60
2019-01-11T08:18:24.085Z,-0.60
2019-01-11T08:20:56.350Z,-0.50
2019-01-11T08:23:25.428Z,-0.40
2019-01-11T08:25:55.208Z,-0.40
2019-01-11T08:28:25.243Z,-0.30
2019-01-11T08:30:55.146Z,-0.30
2019-01-11T08:33:25.179Z,-0.30
2019-01-11T08:35:55.165Z,-0.30
2019-01-11T08:38:24.855Z,-0.20
2019-01-11T08:40:54.670Z,-0.20
2019-01-11T08:43:25.259Z,-0.20
2019-01-11T08:45:55.217Z,-0.10
2019-01-11T08:48:25.177Z,-0.10
2019-01-11T08:50:55.151Z,-0.10
2019-01-11T08:53:25.180Z,-0.10
2019-01-11T08:55:55.133Z,-0.10
2019-01-11T08:58:24.799Z,-0.20
2019-01-11T09:00:54.449Z,-0.10
2019-01-11T09:03:24.657Z,-0.10
2019-01-11T09:05:54.357Z,0.00
2019-01-11T09:08:24.191Z,0.10
2019-01-11T09:10:53.890Z,0.20
2019-01-11T09:13:23.475Z,0.20
2019-01-11T09:15:53.321Z,0.20
2019-01-11T09:18:24.784Z,0.20
2019-01-11T09:20:54.505Z,0.30
2019-01-11T09:23:24.290Z,0.40
2019-01-11T09:25:54.240Z,0.40
2019-01-11T09:28:24.252Z,0.40
2019-01-11T09:30:54.347Z,0.40
2019-01-11T09:33:24.214Z,0.40
2019-01-11T09:35:53.862Z,0.40
2019-01-11T09:38:23.568Z,0.40
2019-01-11T09:40:53.332Z,0.50
2019-01-11T09:43:23.245Z,0.60
2019-01-11T09:45:53.248Z,0.60
2019-01-11T09:48:22.901Z,0.70
2019-01-11T09:50:52.560Z,0.70
2019-01-11T09:53:22.344Z,0.70
2019-01-11T09:55:52.652Z,0.90
2019-01-11T09:58:22.281Z,1.10
2019-01-11T10:00:52.348Z,1.30
2019-01-11T10:03:22.285Z,1.20
2019-01-11T10:05:52.361Z,1.20
2019-01-11T10:08:22.272Z,1.10
2019-01-11T10:10:51.959Z,1.20
2019-01-11T10:13:21.717Z,1.00
2019-01-11T10:15:51.853Z,0.80
2019-01-11T10:18:21.507Z,0.80
2019-01-11T10:20:51.627Z,0.80
2019-01-11T10:23:21.458Z,0.90
2019-01-11T10:25:51.453Z,1.00
2019-01-11T10:28:21.395Z,1.20
2019-01-11T10:30:51.387Z,1.20
2019-01-11T10:33:21.329Z,1.30
2019-01-11T10:35:51.331Z,1.20
2019-01-11T10:38:21.136Z,1.20
2019-01-11T10:40:50.793Z,1.00
2019-01-11T10:43:20.569Z,1.00
2019-01-11T10:45:50.484Z,1.00
2019-01-11T10:48:20.324Z,1.10
2019-01-11T10:50:49.911Z,1.30
2019-01-11T10:53:19.527Z,1.30
2019-01-11T10:55:49.466Z,1.40
2019-01-11T10:58:19.342Z,1.40
2019-01-11T11:00:49.346Z,1.50
2019-01-11T11:03:18.982Z,1.50
2019-01-11T11:05:48.647Z,1.50
2019-01-11T11:08:18.416Z,1.40
2019-01-11T11:10:48.403Z,1.40
2019-01-11T11:13:18.332Z,1.30
2019-01-11T11:15:48.295Z,1.30
2019-01-11T11:18:18.044Z,1.30
2019-01-11T11:20:47.702Z,1.20
2019-01-11T11:23:17.529Z,1.20
2019-01-11T11:25:47.512Z,1.30
2019-01-11T11:28:17.410Z,1.30
2019-01-11T11:30:50.920Z,1.30
2019-01-11T11:33:18.493Z,1.20
2019-01-11T11:35:48.431Z,1.20
2019-01-11T11:38:18.046Z,1.10
2019-01-11T11:40:47.708Z,1.10
2019-01-11T11:43:17.452Z,1.00
2019-01-11T11:45:47.517Z,1.10
2019-01-11T11:48:17.135Z,1.10
2019-01-11T11:50:46.775Z,1.10
2019-01-11T11:53:16.463Z,1.00
2019-01-11T11:55:46.627Z,1.00
2019-01-11T11:58:16.529Z,0.90
2019-01-11T12:00:46.563Z,1.10
2019-01-11T12:03:16.461Z,1.30
2019-01-11T12:05:46.627Z,1.40
2019-01-11T12:08:16.520Z,1.50
2019-01-11T12:10:47.977Z,1.60
2019-01-11T12:13:17.609Z,1.50
2019-01-11T12:15:47.582Z,1.60
2019-01-11T12:18:17.402Z,1.70
2019-01-11T12:20:47.318Z,1.70
2019-01-11T12:23:16.978Z,1.50
2019-01-11T12:25:46.671Z,1.40
2019-01-11T12:28:16.502Z,1.20
2019-01-11T12:30:46.588Z,0.90
2019-01-11T12:33:16.476Z,0.70
2019-01-11T12:35:46.694Z,0.60
2019-01-11T12:38:16.507Z,0.50
2019-01-11T12:40:46.682Z,0.50
2019-01-11T12:43:17.006Z,0.40
2019-01-11T12:45:46.660Z,0.40
2019-01-11T12:48:16.516Z,0.50
2019-01-11T12:50:46.558Z,0.60
2019-01-11T12:53:16.490Z,0.60
2019-01-11T12:55:46.242Z,0.40
2019-01-11T12:58:15.869Z,0.20
2019-01-11T13:00:45.673Z,0.10
2019-01-11T13:03:15.513Z,0.00
2019-01-11T13:05:45.166Z,0.00
2019-01-11T13:08:14.856Z,0.00
2019-01-11T13:10:44.647Z,0.00
2019-01-11T13:13:14.502Z,0.00
2019-01-11T13:15:44.091Z,0.00
2019-01-11T13:18:14.003Z,0.00
2019-01-11T13:20:43.671Z,0.00
2019-01-11T13:23:13.481Z,-0.10
2019-01-11T13:25:43.799Z,-0.10
2019-01-11T13:28:13.577Z,0.00
2019-01-11T13:30:43.262Z,0.00
2019-01-11T13:33:12.969Z,0.00
2019-01-11T13:35:42.702Z,0.00
2019-01-11T13:38:12.658Z,-0.10
2019-01-11T13:40:42.730Z,-0.10
2019-01-11T13:43:12.618Z,-0.20
2019-01-11T13:45:42.698Z,-0.30
2019-01-11T13:48:12.594Z,-0.20
2019-01-11T13:50:42.235Z,-0.20
2019-01-11T13:53:11.901Z,-0.30
2019-01-11T13:55:41.798Z,-0.30
2019-01-11T13:58:13.188Z,-0.30
2019-01-11T14:00:42.887Z,-0.30
2019-01-11T14:03:12.611Z,-0.20
2019-01-11T14:05:42.929Z,-0.20
2019-01-11T14:08:12.611Z,-0.20
2019-01-11T14:10:42.246Z,-0.20
2019-01-11T14:13:11.902Z,-0.30
2019-01-11T14:15:41.806Z,-0.30
2019-01-11T14:18:11.685Z,-0.30
2019-01-11T14:20:41.621Z,0.10
2019-01-11T14:23:11.357Z,-0.40
2019-01-11T14:25:41.156Z,-0.40
2019-01-11T14:28:10.933Z,-0.40
2019-01-11T14:30:41.119Z,-0.30
2019-01-11T14:33:10.854Z,-0.30
2019-01-11T14:35:40.901Z,-0.20
2019-01-11T14:38:10.673Z,-0.10
2019-01-11T14:40:40.930Z,0.00
2019-01-11T14:43:10.685Z,0.00
2019-01-11T14:45:40.339Z,-0.10
2019-01-11T14:48:10.137Z,-0.30
2019-01-11T14:50:39.827Z,-0.40
2019-01-11T14:53:09.741Z,-0.50
2019-01-11T14:55:39.349Z,-0.60
2019-01-11T14:58:09.009Z,-0.70
2019-01-11T15:00:38.833Z,-0.70
2019-01-11T15:03:08.753Z,-0.70
2019-01-11T15:05:38.917Z,-0.80
2019-01-11T15:08:08.757Z,-0.90
2019-01-11T15:10:38.725Z,-0.90
2019-01-11T15:13:08.390Z,-0.90
2019-01-11T15:15:38.067Z,-0.90
2019-01-11T15:18:07.786Z,-0.90
2019-01-11T15:20:37.884Z,-0.90
2019-01-11T15:23:13.369Z,-0.90
2019-01-11T15:25:39.113Z,-0.90
2019-01-11T15:28:08.774Z,-0.90
2019-01-11T15:30:38.954Z,-0.90
2019-01-11T15:33:08.774Z,-0.90
2019-01-11T15:35:39.161Z,-0.90
2019-01-11T15:38:09.016Z,-0.90
2019-01-11T15:40:38.936Z,-0.90
2019-01-11T15:43:08.781Z,-0.90
2019-01-11T15:45:38.822Z,-0.90
2019-01-11T15:48:10.897Z,-0.90
2019-01-11T15:50:46.926Z,-0.90
2019-01-11T15:53:16.806Z,-0.90
2019-01-11T15:55:46.922Z,-0.90
2019-01-11T15:58:16.827Z,-0.80
2019-01-11T16:00:48.356Z,-0.80
2019-01-11T16:03:18.050Z,-0.80
2019-01-11T16:05:48.013Z,-0.80
2019-01-11T16:08:17.879Z,-0.80
2019-01-11T16:10:53.652Z,-0.80
2019-01-11T16:13:23.362Z,-0.80
2019-01-11T16:15:56.196Z,-0.80
2019-01-11T16:18:25.892Z,-0.80
2019-01-11T16:20:55.806Z,-0.80
2019-01-11T16:23:25.467Z,-0.70
2019-01-11T16:25:55.145Z,-0.70
2019-01-11T16:28:24.913Z,-0.70
2019-01-11T16:30:54.844Z,-0.70
2019-01-11T16:33:24.526Z,-0.70
2019-01-11T16:35:54.224Z,-0.70
2019-01-11T16:38:23.930Z,-0.70
2019-01-11T16:40:53.931Z,-0.70
2019-01-11T16:43:23.857Z,-0.70
2019-01-11T16:45:53.912Z,-0.70
2019-01-11T16:48:23.900Z,-0.70
2019-01-11T16:50:53.837Z,-0.70
2019-01-11T16:53:23.513Z,-0.70
2019-01-11T16:55:53.287Z,-0.70
2019-01-11T16:58:22.950Z,-0.70
2019-01-11T17:00:53.197Z,-0.80
2019-01-11T17:03:22.994Z,-0.80
2019-01-11T17:05:53.045Z,-0.70
2019-01-11T17:08:23.111Z,-0.80
2019-01-11T17:10:53.272Z,-0.80
2019-01-11T17:13:23.017Z,0.00
2019-01-11T17:15:53.059Z,-0.70
2019-01-11T17:18:23.024Z,-0.70
2019-01-11T17:20:52.993Z,-0.70
2019-01-11T17:23:22.965Z,-0.70
2019-01-11T17:25:53.229Z,-0.70
2019-01-11T17:28:23.045Z,-0.70
2019-01-11T17:30:53.064Z,-0.80
2019-01-11T17:33:23.034Z,-0.80
2019-01-11T17:35:53.049Z,-0.70
2019-01-11T17:38:23.004Z,-0.70
2019-01-11T17:40:52.682Z,-0.70
2019-01-11T17:43:22.494Z,-0.70
2019-01-11T17:45:52.232Z,-0.60
2019-01-11T17:48:22.078Z,-0.70
2019-01-11T17:50:52.133Z,-0.70
2019-01-11T17:53:22.081Z,-0.60
2019-01-11T17:55:52.091Z,-0.60
2019-01-11T17:58:22.037Z,-0.60
2019-01-11T18:00:52.302Z,0.00
2019-01-11T18:03:22.179Z,-0.60
2019-01-11T18:05:52.182Z,-0.60
2019-01-11T18:08:22.054Z,-0.60
2019-01-11T18:10:52.259Z,-0.60
2019-01-11T18:13:22.113Z,-0.60
2019-01-11T18:15:52.355Z,-0.60
2019-01-11T18:18:22.097Z,-0.60
2019-01-11T18:20:52.049Z,-0.60
2019-01-11T18:23:21.718Z,-0.60
2019-01-11T18:25:51.441Z,-0.60
2019-01-11T18:28:21.163Z,-0.60
2019-01-11T18:30:51.205Z,-0.60
2019-01-11T18:33:21.144Z,-0.70
2019-01-11T18:35:51.177Z,-0.70
2019-01-11T18:38:21.010Z,-0.70
2019-01-11T18:40:50.671Z,-0.70
2019-01-11T18:43:20.389Z,-0.70
2019-01-11T18:45:50.230Z,-0.70
2019-01-11T18:48:20.091Z,-0.70
2019-01-11T18:50:50.364Z,-0.70
2019-01-11T18:53:20.090Z,-0.70
2019-01-11T18:55:53.196Z,-0.70
2019-01-11T18:58:23.164Z,-0.70
2019-01-11T19:00:53.192Z,-0.80
2019-01-11T19:03:23.106Z,-0.80
2019-01-11T19:05:53.459Z,-0.80
2019-01-11T19:08:23.206Z,-0.80
2019-01-11T19:10:53.191Z,-0.80
2019-01-11T19:13:23.168Z,-0.80
2019-01-11T19:15:53.391Z,-0.80
2019-01-11T19:18:23.212Z,-0.80
2019-01-11T19:20:53.143Z,-0.80
2019-01-11T19:23:22.805Z,-0.80
2019-01-11T19:25:52.488Z,-0.10
2019-01-11T19:28:22.179Z,-0.80
2019-01-11T19:30:52.217Z,-0.90
2019-01-11T19:33:22.157Z,-0.90
2019-01-11T19:35:51.880Z,-0.90
2019-01-11T19:38:22.455Z,-0.90
2019-01-11T19:40:52.337Z,-0.90
2019-01-11T19:43:22.274Z,-0.90
2019-01-11T19:45:52.350Z,-0.90
2019-01-11T19:48:22.247Z,-0.90
2019-01-11T19:50:52.254Z,-0.90
2019-01-11T19:53:27.508Z,-0.90
2019-01-11T19:55:58.755Z,-0.90
2019-01-11T19:58:25.564Z,-0.90
2019-01-11T20:00:55.450Z,-0.90
2019-01-11T20:03:25.570Z,-0.90
2019-01-11T20:05:55.854Z,-0.90
2019-01-11T20:08:25.602Z,-0.90
2019-01-11T20:10:55.471Z,-0.80
2019-01-11T20:13:25.228Z,-0.80
2019-01-11T20:15:55.160Z,0.20
2019-01-11T20:18:24.818Z,-0.70
2019-01-11T20:20:54.511Z,-0.70
2019-01-11T20:23:24.244Z,-0.70
2019-01-11T20:25:54.248Z,-0.70
2019-01-11T20:28:24.001Z,-0.70
2019-01-11T20:30:53.783Z,-0.70
2019-01-11T20:33:23.567Z,-0.70
2019-01-11T20:35:53.474Z,-0.70
2019-01-11T20:38:23.292Z,-0.60
2019-01-11T20:40:53.632Z,-0.60
2019-01-11T20:43:23.421Z,-0.60
2019-01-11T20:45:53.464Z,-0.60
2019-01-11T20:48:23.414Z,-0.60
2019-01-11T20:50:53.508Z,-0.60
2019-01-11T20:53:23.699Z,-0.50
2019-01-11T20:55:53.670Z,-0.50
2019-01-11T20:58:23.342Z,-0.50
2019-01-11T21:00:53.326Z,-0.50
2019-01-11T21:03:26.554Z,-0.60
2019-01-11T21:05:56.382Z,-0.60
2019-01-11T21:08:26.296Z,-0.60
2019-01-11T21:10:55.914Z,-0.60
2019-01-11T21:13:25.573Z,-0.60
2019-01-11T21:15:55.387Z,-0.60
2019-01-11T21:18:24.980Z,-0.60
2019-01-11T21:20:54.674Z,-0.60
2019-01-11T21:23:24.382Z,-0.60
2019-01-11T21:25:53.997Z,-0.60
2019-01-11T21:28:23.678Z,-0.60
2019-01-11T21:30:57.230Z,-0.60
2019-01-11T21:33:24.949Z,-0.50
2019-01-11T21:35:54.637Z,-0.90
2019-01-11T21:38:25.217Z,-0.60
2019-01-11T21:40:54.959Z,-0.60
2019-01-11T21:43:24.731Z,-0.60
2019-01-11T21:45:54.458Z,-0.60
2019-01-11T21:48:24.441Z,-0.50
2019-01-11T21:50:54.374Z,-0.50
2019-01-11T21:53:24.251Z,-0.50
2019-01-11T21:55:53.937Z,-0.50
2019-01-11T21:58:23.820Z,-0.50
2019-01-11T22:00:53.588Z,-0.50
2019-01-11T22:03:23.524Z,-0.50
2019-01-11T22:05:53.574Z,-0.50
2019-01-11T22:08:23.526Z,-0.50
2019-01-11T22:10:53.590Z,-0.50
2019-01-11T22:13:23.460Z,-0.50
2019-01-11T22:15:53.455Z,-0.40
2019-01-11T22:18:23.194Z,-0.40
2019-01-11T22:20:52.914Z,-0.30
2019-01-11T22:23:23.914Z,-0.30
2019-01-11T22:25:53.914Z,-0.30
2019-01-11T22:28:23.741Z,-0.30
2019-01-11T22:30:53.790Z,-0.30
2019-01-11T22:33:23.616Z,-0.30
2019-01-11T22:35:53.759Z,-0.30
2019-01-11T22:38:23.541Z,-0.30
2019-01-11T22:40:53.565Z,-0.30
2019-01-11T22:43:23.574Z,-0.30
2019-01-11T22:45:53.529Z,-0.30
2019-01-11T22:48:23.227Z,-0.20
2019-01-11T22:50:53.015Z,-0.20
2019-01-11T22:53:22.858Z,-0.20
2019-01-11T22:55:52.743Z,-0.20
2019-01-11T22:58:22.657Z,-0.10
2019-01-11T23:00:58.789Z,-0.10
2019-01-11T23:03:31.720Z,-0.10
2019-01-11T23:06:13.834Z,-0.10
2019-01-11T23:08:43.744Z,-0.10
2019-01-11T23:11:36.665Z,-0.10
2019-01-11T23:14:06.878Z,-0.10
2019-01-11T23:16:37.410Z,-0.10
2019-01-11T23:19:07.256Z,0.00
2019-01-11T23:21:36.978Z,0.00
2019-01-11T23:24:06.843Z,0.00
2019-01-11T23:26:36.745Z,0.00
2019-01-11T23:29:06.611Z,0.00
2019-01-11T23:31:36.676Z,0.00
2019-01-11T23:34:06.688Z,0.00
2019-01-11T23:36:36.372Z,0.00
2019-01-11T23:39:07.257Z,0.00
2019-01-11T23:41:36.936Z,0.00
2019-01-11T23:44:06.697Z,0.00
2019-01-11T23:46:36.697Z,0.00
2019-01-11T23:49:06.607Z,0.00
2019-01-11T23:51:36.639Z,0.00
2019-01-11T23:54:06.924Z,0.00
2019-01-11T23:56:36.814Z,0.00
2019-01-11T23:59:09.260Z,0.10
